KHDN

Details ICAO KHDN (HDN)
Name YAMPA VALLEY
Region United States
Timezone America/Denver (UTC-7.0)
Plans Departing 9
Arriving 13
Stats Elevation 6,602 ft / 2,012 m (AMSL)
Location 40.481179° -107.217663°
Runways 1
Magnetic Variation 9.399° E
Sunrise 2017-12-18 14:28:34 UTC / 2017-12-18 07:28:34 Local
Sunset 2017-12-18 23:45:23 UTC / 2017-12-18 16:45:23 Local
Advertisement - Login to hide

Runways

ID Width Length Bearing (true) Bearing (mag) Surface Threshold Offset Overrun Length
10 151 ft / 46 m 9,980 ft / 3,042 m 113.80° 104.40° Asphalt 509 ft / 155 m 200 ft / 61 m
28 151 ft / 46 m 9,980 ft / 3,042 m 293.82° 284.42° Asphalt 0 ft / 0 m 0 ft / 0 m

Approach Navaids

Runway Type Ident Frequency Range Bearing (true) Bearing (mag) Slope Elevation
10 Localiser IHDN 109.90 MHz 18 nm / 33 km 113.83° 104.43° - 6,602 ft / 2,012 m (AMSL)
10 Glidescope IHDN 109.90 MHz 10 nm / 19 km 113.81° 104.41° 3.00° 6,583 ft / 2,006 m (AMSL)
10 DME IHDN 109.90 MHz 18 nm / 33 km - - - 6,602 ft / 2,012 m (AMSL)

Map

Weather


0- 5 10 15 20 25 30 35+ Temperature / ° C

Clouds and Precipitation
Forecast for 2017-12-18 18:00 UTC. Updated 2 hours ago

Ground ~20,000 ft ~40,000 ft Winds

METAR

KHDN 181456Z AUTO 10008KT 10SM OVC040 M05/M08 A3020 RMK AO2 SLP273 T10501078 53004 FZRANO

TAF

Not found

Frequencies

Recorded 119.27 MHz AWOS 3
Unicom 123.00 MHz CTAF/UNICOM
Warning: Do not use this data for real-world aviation or navigation. No guarantee of current accuracy is given.